PASV/SVW METAR and TAF weather

Enter ICAO airport designator
Station Type Date Time Source
PASV METAR 2020/08/05 23:55 UTC NOAA

PASV 052355Z AUTO VRB03KT 10SM FEW055 20/07 A2958 RMK AO2 LTG DSNT NE SLP003 T01980071 10154 20099 57024


Station Type Date Time Source
PASV Decoded METAR 2020/08/05 23:55 UTC NOAA

Sparrevohn Airways Facilities Sector, AK, United States (PASV) 61-06N 155-34W
Aug 05, 2020 - 07:55 PM EDT / 2020.08.05 2355 UTC
Wind: Variable at 3 MPH (3 KT):0
Visibility: 10 mile(s):0
Sky conditions: mostly clear
Weather: Lightning observed
Temperature: 67.6 F (19.8 C)
Dew Point: 44.8 F (7.1 C)
Relative Humidity: 43%
Pressure (altimeter): 29.58 in. Hg (1001 hPa)
Pressure tendency: 0.07 inches (2.4 hPa) lower than three hours ago
ob: PASV 052355Z AUTO VRB03KT 10SM FEW055 20/07 A2958 RMK AO2 LTG DSNT NE SLP003 T01980071 10154 20099 57024
cycle: 0

Station Type Date Time Source
PASV TAF 2012/01/12 14:57 UTC NOAA

TAF
AMD PASV 1214/1320 33010G15KT 4800 -SN BLSN SCT003 SCT110 QNH2984INS
BECMG 1221/1222 VRB06KT 9999 NSW FEW010 SCT110 QNH3000INS LIMITED METWATCH TM25/1300Z TM37/1315Z
AMD 121453

Example: see airport list